Time;durP1;ratioP1;P1;durP2;ratioP2;P2;SDS_P1;SDS_P2;PMS_P1;PMS_P2;Temp;Humidity;BMP_temperature;BMP_pressure;BME280_temperature;BME280_humidity;BME280_pressure;Samples;Min_cycle;Max_cycle;Signal;HPM_P1;HPM_P2
2021/01/21 00:01:36;;;;;;;4.45;3.42;;;;;;;3.77;61.52;95342.81;6246181;23;20020;-77
2021/01/21 00:04:03;;;;;;;5.43;3.72;;;;;;;3.76;61.73;95335.22;6246308;23;20337;-77
2021/01/21 00:06:29;;;;;;;6.38;4.35;;;;;;;3.75;61.41;95333.66;6246281;23;20026;-77
2021/01/21 00:08:56;;;;;;;5.40;4.18;;;;;;;3.76;61.22;95330.06;6246150;23;20027;-77
2021/01/21 00:11:23;;;;;;;5.10;3.85;;;;;;;3.74;61.21;95324.28;6245706;23;20024;-77
2021/01/21 00:13:50;;;;;;;8.13;4.75;;;;;;;3.71;61.56;95313.34;6246140;23;20020;-77
2021/01/21 00:16:17;;;;;;;8.43;4.13;;;;;;;3.71;61.16;95300.44;6245408;23;20061;-78
2021/01/21 00:18:44;;;;;;;5.50;4.43;;;;;;;3.72;61.46;95309.00;6245972;23;20071;-77
2021/01/21 00:21:10;;;;;;;6.40;4.18;;;;;;;3.72;61.57;95301.25;6245680;23;20026;-77
2021/01/21 00:23:37;;;;;;;6.95;5.03;;;;;;;3.72;61.40;95294.31;6245805;23;20016;-78
2021/01/21 00:26:03;;;;;;;5.68;4.18;;;;;;;3.72;61.05;95278.84;6245407;23;20016;-77
2021/01/21 00:28:30;;;;;;;12.27;5.05;;;;;;;3.70;61.65;95285.94;6246136;23;20025;-77
2021/01/21 00:30:57;;;;;;;5.78;4.53;;;;;;;3.69;61.42;95286.91;6245546;23;20020;-78
2021/01/21 00:33:23;;;;;;;5.70;4.43;;;;;;;3.67;61.14;95283.72;6246077;23;20125;-77
2021/01/21 00:35:50;;;;;;;8.40;4.97;;;;;;;3.66;61.57;95271.78;6245494;23;20024;-77
2021/01/21 00:38:16;;;;;;;8.18;5.32;;;;;;;3.64;61.34;95273.72;6246159;23;20027;-78
2021/01/21 00:40:43;;;;;;;8.70;5.70;;;;;;;3.64;61.08;95285.84;6245542;23;20396;-78
2021/01/21 00:43:09;;;;;;;6.53;4.97;;;;;;;3.65;61.46;95277.09;6247323;23;20031;-77
2021/01/21 00:45:37;;;;;;;5.55;4.40;;;;;;;3.66;61.62;95289.03;6247183;23;20016;-78
2021/01/21 00:48:04;;;;;;;6.93;5.15;;;;;;;3.66;61.62;95281.31;6248004;23;20024;-78
2021/01/21 00:50:31;;;;;;;6.63;4.85;;;;;;;3.67;61.30;95291.47;6247526;23;20030;-77
2021/01/21 00:52:57;;;;;;;6.15;4.35;;;;;;;3.68;61.52;95292.25;6247574;23;20012;-77
2021/01/21 00:55:25;;;;;;;5.68;4.57;;;;;;;3.69;61.48;95314.47;6248253;23;20024;-78
2021/01/21 00:57:51;;;;;;;5.72;4.40;;;;;;;3.71;61.07;95313.34;6247851;23;20020;-77
2021/01/21 01:00:19;;;;;;;5.03;4.53;;;;;;;3.72;61.04;95309.00;6247811;23;20020;-77
2021/01/21 01:02:46;;;;;;;12.25;5.80;;;;;;;3.74;61.26;95311.38;6247875;23;20279;-77
2021/01/21 01:05:13;;;;;;;9.10;5.18;;;;;;;3.77;60.99;95326.53;6247749;23;20020;-77
2021/01/21 01:07:40;;;;;;;11.13;5.25;;;;;;;3.79;61.26;95334.91;6247805;23;20027;-77
2021/01/21 01:10:07;;;;;;;7.75;5.22;;;;;;;3.81;60.96;95340.72;6247305;23;20024;-77
2021/01/21 01:12:35;;;;;;;8.82;5.75;;;;;;;3.82;61.43;95324.25;6247838;23;20026;-77
2021/01/21 01:15:04;;;;;;;9.90;6.70;;;;;;;3.83;61.10;95328.44;6247418;23;20512;-78
2021/01/21 01:17:30;;;;;;;8.15;5.80;;;;;;;3.82;62.47;95314.72;6248068;23;20020;-77
2021/01/21 01:19:58;;;;;;;10.52;6.28;;;;;;;3.83;61.46;95318.13;6247312;23;20348;-77
2021/01/21 01:22:24;;;;;;;7.82;5.65;;;;;;;3.83;61.65;95300.88;6247664;23;20031;-77
2021/01/21 01:24:51;;;;;;;15.48;8.23;;;;;;;3.81;61.63;95289.91;6247664;23;20020;-77
2021/01/21 01:27:18;;;;;;;14.23;8.35;;;;;;;3.80;61.69;95292.66;6248192;23;20078;-77
2021/01/21 01:29:45;;;;;;;12.65;7.38;;;;;;;3.76;61.44;95289.63;6247581;23;20024;-77
2021/01/21 01:32:11;;;;;;;12.45;7.78;;;;;;;3.74;62.67;95308.81;6247902;23;20028;-78
2021/01/21 01:34:38;;;;;;;15.48;8.82;;;;;;;3.72;62.04;95288.38;6247618;23;20349;-77
2021/01/21 01:37:05;;;;;;;14.95;7.53;;;;;;;3.68;61.73;95315.47;6247573;23;20492;-77
2021/01/21 01:39:32;;;;;;;11.77;6.80;;;;;;;3.66;61.62;95295.00;6247288;23;20027;-77
2021/01/21 01:42:00;;;;;;;13.75;7.13;;;;;;;3.67;61.72;95299.19;6247264;23;20027;-77
2021/01/21 01:44:26;;;;;;;12.88;7.00;;;;;;;3.67;61.94;95286.31;6247815;23;20024;-77
2021/01/21 01:46:53;;;;;;;9.30;6.18;;;;;;;3.66;61.88;95294.19;6247577;23;20457;-77
2021/01/21 01:49:20;;;;;;;8.85;6.60;;;;;;;3.64;62.15;95304.69;6247109;23;20028;-77
2021/01/21 01:51:47;;;;;;;6.93;5.65;;;;;;;3.62;62.03;95304.03;6247443;23;20046;-78
2021/01/21 01:54:14;;;;;;;7.22;5.28;;;;;;;3.58;62.22;95301.97;6247619;23;20031;-77
2021/01/21 01:56:40;;;;;;;7.00;6.18;;;;;;;3.57;61.77;95306.34;6247201;23;20464;-77
2021/01/21 01:59:08;;;;;;;7.70;4.80;;;;;;;3.53;61.80;95294.75;6247040;23;20024;-79
2021/01/21 02:01:36;;;;;;;6.97;4.93;;;;;;;3.53;62.05;95292.19;6247659;23;20020;-77
2021/01/21 02:04:02;;;;;;;6.25;4.65;;;;;;;3.55;61.80;95281.69;6246822;23;20479;-77
2021/01/21 02:06:29;;;;;;;6.47;4.95;;;;;;;3.55;62.03;95274.75;6246789;23;20034;-77
2021/01/21 02:08:57;;;;;;;6.40;4.85;;;;;;;3.56;61.78;95263.47;6247144;23;20456;-77
2021/01/21 02:11:37;;;;;;;7.05;4.80;;;;;;;3.56;61.94;95268.63;6246653;23;20107;-78
2021/01/21 02:14:10;;;;;;;6.85;5.03;;;;;;;3.57;61.56;95277.97;6247631;23;20103;-78
2021/01/21 02:16:53;;;;;;;5.20;4.47;;;;;;;3.59;61.51;95270.09;6247192;23;20087;-77
2021/01/21 02:20:08;;;;;;;7.32;5.55;;;;;;;3.63;62.45;95261.00;6247181;23;20361;-77
2021/01/21 02:23:16;;;;;;;7.13;5.10;;;;;;;3.62;62.36;95257.63;6124183;23;20022;-77
2021/01/21 02:25:47;;;;;;;5.20;4.10;;;;;;;3.65;61.48;95246.16;6141959;23;20071;-79
2021/01/21 02:28:45;;;;;;;5.32;3.90;;;;;;;3.68;61.41;95245.84;6249168;23;20066;-79
2021/01/21 02:31:26;;;;;;;8.20;4.00;;;;;;;3.70;61.68;95254.22;6248058;23;20099;-79
2021/01/21 02:34:00;;;;;;;5.75;4.05;;;;;;;3.72;61.03;95242.75;6248172;23;20024;-79
2021/01/21 02:36:34;;;;;;;5.30;3.92;;;;;;;3.77;61.31;95254.31;6247579;23;20107;-78
2021/01/21 02:39:02;;;;;;;6.97;4.90;;;;;;;3.79;61.26;95255.75;6248368;23;20095;-79
2021/01/21 02:41:32;;;;;;;6.90;4.45;;;;;;;3.81;61.45;95253.00;6247582;23;20099;-79
2021/01/21 02:44:00;;;;;;;5.85;3.88;;;;;;;3.82;61.75;95244.28;6247441;23;20031;-79
2021/01/21 02:46:27;;;;;;;7.43;4.28;;;;;;;3.83;61.65;95246.69;6247564;23;20048;-81
2021/01/21 02:48:56;;;;;;;5.57;4.50;;;;;;;3.84;61.59;95247.50;6247725;23;20453;-79
2021/01/21 02:51:32;;;;;;;5.30;4.57;;;;;;;3.84;61.34;95229.44;6247725;23;20082;-79
2021/01/21 02:54:19;;;;;;;5.80;4.70;;;;;;;3.87;61.32;95231.66;6247744;23;20024;-78
2021/01/21 02:56:47;;;;;;;6.72;4.72;;;;;;;3.90;61.31;95223.59;6247607;23;20028;-79
2021/01/21 02:59:18;;;;;;;4.90;3.88;;;;;;;3.91;61.12;95215.69;6248056;23;20047;-78
2021/01/21 03:01:47;;;;;;;5.75;4.40;;;;;;;3.93;61.13;95223.22;6247728;23;20398;-78
2021/01/21 03:04:16;;;;;;;4.70;4.20;;;;;;;3.95;60.88;95220.47;6246725;23;20023;-79
2021/01/21 03:06:45;;;;;;;5.80;4.32;;;;;;;3.97;60.57;95219.31;6247826;23;20024;-80
2021/01/21 03:09:11;;;;;;;4.35;3.78;;;;;;;4.00;60.86;95219.00;6247112;23;20460;-79
2021/01/21 03:11:38;;;;;;;6.65;4.45;;;;;;;4.03;60.36;95216.06;6247569;23;20077;-78
2021/01/21 03:14:06;;;;;;;5.07;4.25;;;;;;;4.06;60.26;95207.94;6247265;23;20091;-78
2021/01/21 03:16:33;;;;;;;6.90;3.78;;;;;;;4.11;60.03;95208.25;6246399;23;20055;-79
2021/01/21 03:19:00;;;;;;;5.70;3.83;;;;;;;4.16;59.70;95214.66;6246827;23;20095;-80
2021/01/21 03:21:27;;;;;;;4.57;3.70;;;;;;;4.19;59.50;95222.84;6247179;23;20099;-79
2021/01/21 03:23:55;;;;;;;4.90;4.05;;;;;;;4.23;59.58;95213.78;6247369;23;20518;-78
2021/01/21 03:26:22;;;;;;;3.83;3.42;;;;;;;4.26;59.47;95202.28;6246723;23;20063;-78
2021/01/21 03:28:49;;;;;;;4.88;3.72;;;;;;;4.29;59.55;95197.59;6247315;23;20166;-78
2021/01/21 03:31:16;;;;;;;6.55;4.22;;;;;;;4.31;59.62;95205.94;6246730;23;20107;-79
2021/01/21 03:33:43;;;;;;;4.53;3.78;;;;;;;4.37;59.54;95230.25;6247287;23;20028;-79
2021/01/21 03:36:10;;;;;;;5.28;3.28;;;;;;;4.41;59.79;95239.25;6247144;23;20329;-79
2021/01/21 03:38:37;;;;;;;6.70;3.75;;;;;;;4.44;60.02;95249.22;6248348;23;20066;-79
2021/01/21 03:41:05;;;;;;;5.43;4.75;;;;;;;4.46;59.79;95236.13;6254116;23;20020;-80
2021/01/21 03:43:32;;;;;;;5.95;4.70;;;;;;;4.44;59.54;95249.22;6251620;23;20012;-79
2021/01/21 03:46:00;;;;;;;8.20;5.93;;;;;;;4.43;59.73;95249.41;6248412;23;20104;-80
2021/01/21 03:48:27;;;;;;;8.15;6.18;;;;;;;4.38;59.68;95249.94;6246746;23;20112;-79
2021/01/21 03:50:54;;;;;;;8.00;6.88;;;;;;;4.31;60.10;95246.47;6246657;23;20512;-79
2021/01/21 03:53:21;;;;;;;10.07;7.18;;;;;;;4.20;60.65;95244.28;6246857;23;20046;-79
2021/01/21 03:55:48;;;;;;;8.77;6.60;;;;;;;4.10;60.35;95257.44;6248743;23;20048;-79
2021/01/21 03:58:16;;;;;;;8.85;6.93;;;;;;;4.05;60.51;95252.81;6251766;23;20020;-79
2021/01/21 04:00:42;;;;;;;6.85;5.25;;;;;;;4.03;60.26;95231.53;6249333;23;20071;-80
2021/01/21 04:03:09;;;;;;;5.70;5.10;;;;;;;4.02;60.60;95232.50;6246583;23;20020;-78
2021/01/21 04:05:37;;;;;;;9.27;6.85;;;;;;;4.02;60.57;95218.78;6246941;23;20074;-79
2021/01/21 04:08:04;;;;;;;8.77;7.10;;;;;;;3.98;60.90;95205.47;6246271;23;20024;-80
2021/01/21 04:10:31;;;;;;;7.32;6.20;;;;;;;3.99;60.88;95201.91;6247229;23;20024;-79
2021/01/21 04:12:58;;;;;;;8.15;7.30;;;;;;;4.00;60.72;95198.34;6246962;23;20408;-79
2021/01/21 04:15:26;;;;;;;8.25;6.72;;;;;;;4.04;62.11;95189.25;6246610;23;20066;-79
2021/01/21 04:17:53;;;;;;;8.40;5.85;;;;;;;4.07;60.60;95186.34;6247339;23;20056;-79
2021/01/21 04:20:20;;;;;;;9.73;7.55;;;;;;;4.11;61.17;95186.78;6246639;23;20034;-78
2021/01/21 04:22:47;;;;;;;7.97;5.78;;;;;;;4.14;60.71;95178.69;6246714;23;20095;-79
2021/01/21 04:25:14;;;;;;;6.93;5.20;;;;;;;4.19;60.35;95175.59;6246210;23;20060;-79
2021/01/21 04:27:41;;;;;;;7.35;5.65;;;;;;;4.23;60.18;95156.19;6246536;23;20401;-79
2021/01/21 04:30:13;;;;;;;14.95;7.38;;;;;;;4.26;60.59;95140.34;6246658;23;20027;-78
2021/01/21 04:32:40;;;;;;;9.00;6.15;;;;;;;4.30;60.43;95121.72;6246172;23;20104;-79
2021/01/21 04:35:09;;;;;;;8.13;5.40;;;;;;;4.32;59.80;95132.69;6246633;23;20418;-79
2021/01/21 04:37:36;;;;;;;6.70;4.90;;;;;;;4.34;59.61;95130.72;6246384;23;20063;-79
2021/01/21 04:40:04;;;;;;;7.78;5.38;;;;;;;4.37;59.33;95121.81;6246420;23;20024;-79
2021/01/21 04:42:32;;;;;;;7.38;5.28;;;;;;;4.38;59.30;95123.44;6246403;23;20471;-79
2021/01/21 04:45:04;;;;;;;5.97;5.30;;;;;;;4.39;59.02;95114.69;6248789;23;20051;-79
2021/01/21 04:47:32;;;;;;;6.20;5.30;;;;;;;4.41;59.53;95122.25;6251508;23;20019;-80
2021/01/21 04:50:01;;;;;;;3.70;3.40;;;;;;;4.44;59.94;95127.88;6251326;23;20044;-80
2021/01/21 04:52:29;;;;;;;5.32;3.92;;;;;;;4.50;59.05;95127.16;6250918;23;20020;-80
2021/01/21 04:55:00;;;;;;;5.30;3.20;;;;;;;4.56;59.13;95146.28;6250458;23;20024;-80
2021/01/21 04:57:37;;;;;;;7.30;3.67;;;;;;;4.60;58.97;95137.19;6251077;23;20020;-79
2021/01/21 05:00:05;;;;;;;7.13;4.15;;;;;;;4.64;58.67;95127.31;6248050;23;20016;-78
2021/01/21 05:02:34;;;;;;;6.47;4.25;;;;;;;4.70;59.23;95149.81;6247634;23;20016;-79
2021/01/21 05:05:02;;;;;;;4.90;4.35;;;;;;;4.74;58.66;95122.66;6247040;23;20066;-79
2021/01/21 05:07:30;;;;;;;5.53;4.03;;;;;;;4.75;58.01;95127.66;6247517;23;20051;-81
2021/01/21 05:09:57;;;;;;;4.28;3.88;;;;;;;4.78;58.36;95128.28;6247444;23;20095;-79
2021/01/21 05:12:24;;;;;;;4.53;3.83;;;;;;;4.80;58.16;95132.28;6247920;23;20047;-78
2021/01/21 05:14:51;;;;;;;6.47;4.88;;;;;;;4.82;57.76;95135.47;6247463;23;20059;-79
2021/01/21 05:17:18;;;;;;;9.00;4.72;;;;;;;4.82;58.14;95142.44;6249788;23;20020;-79
2021/01/21 05:19:47;;;;;;;5.18;4.40;;;;;;;4.82;57.55;95145.00;6248562;23;20102;-79
2021/01/21 05:22:15;;;;;;;7.68;4.68;;;;;;;4.84;57.58;95148.22;6248231;23;20024;-78
2021/01/21 05:24:44;;;;;;;8.55;5.70;;;;;;;4.82;57.96;95135.47;6247937;23;20360;-79
2021/01/21 05:27:12;;;;;;;9.45;6.60;;;;;;;4.82;57.42;95135.47;6247251;23;20020;-78
2021/01/21 05:29:43;;;;;;;6.38;4.85;;;;;;;4.84;57.34;95135.31;6248593;23;20024;-79
2021/01/21 05:32:11;;;;;;;5.82;4.97;;;;;;;4.84;57.52;95154.19;6248448;23;20021;-79
2021/01/21 05:34:39;;;;;;;5.07;4.57;;;;;;;4.89;57.91;95151.03;6248368;23;20396;-78
2021/01/21 05:37:10;;;;;;;7.35;5.25;;;;;;;4.91;57.78;95149.88;6248056;23;20026;-79
2021/01/21 05:39:39;;;;;;;6.30;5.00;;;;;;;4.91;57.03;95133.56;6248249;23;20404;-79
2021/01/21 05:42:07;;;;;;;5.15;4.65;;;;;;;4.91;56.92;95144.72;6248362;23;20035;-78
2021/01/21 05:44:35;;;;;;;6.93;4.80;;;;;;;4.92;57.28;95151.50;6247842;23;20050;-78
2021/01/21 05:47:03;;;;;;;8.23;5.68;;;;;;;4.92;56.96;95154.06;6247523;23;20063;-78
2021/01/21 05:49:31;;;;;;;5.28;4.75;;;;;;;4.92;57.41;95151.50;6247944;23;20107;-79
2021/01/21 05:51:59;;;;;;;8.00;5.22;;;;;;;4.93;59.22;95171.16;6247943;23;20052;-79
2021/01/21 05:54:27;;;;;;;5.50;4.45;;;;;;;4.94;58.03;95170.19;6262483;23;20068;-80
2021/01/21 05:56:57;;;;;;;6.53;5.15;;;;;;;4.93;57.13;95173.75;6266088;23;20052;-79
2021/01/21 05:59:26;;;;;;;9.82;5.13;;;;;;;4.97;57.72;95188.91;6266110;23;20107;-79
2021/01/21 06:01:54;;;;;;;6.65;5.05;;;;;;;5.00;57.53;95193.72;6261636;23;20032;-79
2021/01/21 06:04:26;;;;;;;7.65;5.30;;;;;;;5.02;58.18;95191.75;6250242;23;20110;-79
2021/01/21 06:06:54;;;;;;;7.18;5.40;;;;;;;5.04;57.54;95180.25;6248596;23;20419;-79
2021/01/21 06:09:27;;;;;;;7.47;4.57;;;;;;;5.04;57.67;95175.06;6247973;23;20344;-79
2021/01/21 06:11:59;;;;;;;9.88;6.05;;;;;;;5.03;58.65;95186.41;6247708;23;20015;-78
2021/01/21 06:14:26;;;;;;;6.53;5.30;;;;;;;5.02;57.11;95177.03;6248340;23;20020;-78
2021/01/21 06:16:54;;;;;;;5.93;4.85;;;;;;;5.04;57.08;95169.09;6247611;23;20028;-77
2021/01/21 06:19:22;;;;;;;6.45;4.55;;;;;;;5.05;57.75;95175.88;6246769;23;20456;-78
2021/01/21 06:21:55;;;;;;;9.05;5.60;;;;;;;5.05;57.32;95178.44;6247743;23;20020;-78
2021/01/21 06:24:28;;;;;;;9.45;6.18;;;;;;;5.04;57.34;95182.81;6247937;23;20070;-78
2021/01/21 06:26:58;;;;;;;9.02;5.75;;;;;;;5.04;57.07;95184.63;6247478;23;20107;-78
2021/01/21 06:29:28;;;;;;;9.20;5.70;;;;;;;5.01;57.01;95185.78;6247719;23;20536;-78
2021/01/21 06:32:01;;;;;;;6.25;4.68;;;;;;;5.00;56.35;95184.16;6247095;23;20024;-78
2021/01/21 06:34:30;;;;;;;;;;;;;;;5.05;57.27;95192.19;6247648;23;20472;-78
2021/01/21 06:37:02;;;;;;;6.97;4.60;;;;;;;5.06;56.33;95173.09;6247209;23;19915;-78
2021/01/21 06:39:39;;;;;;;7.47;4.57;;;;;;;5.08;57.39;95185.84;6247217;23;20024;-78
2021/01/21 06:42:08;;;;;;;12.40;4.60;;;;;;;5.12;57.04;95180.13;6248274;23;20047;-79
2021/01/21 06:44:35;;;;;;;8.05;5.53;;;;;;;5.15;58.67;95181.53;6247650;23;20055;-78
2021/01/21 06:47:02;;;;;;;8.80;4.68;;;;;;;5.20;58.92;95184.38;6246253;23;20539;-78
2021/01/21 06:49:29;;;;;;;12.20;5.47;;;;;;;5.23;59.01;95183.25;6246157;23;20059;-79
2021/01/21 06:55:52;;;;;;;5.85;3.78;;;;;;;5.30;59.42;95184.09;6157809;23;20401;-79
2021/01/21 08:11:54;;;;;;;1.02;0.93;;;;;;;6.44;55.69;95228.06;6219198;23;20026;-81
2021/01/21 08:26:38;;;;;;;2.40;0.77;;;;;;;6.62;55.38;95219.00;6198451;23;20024;-78
2021/01/21 08:29:11;;;;;;;3.55;0.75;;;;;;;6.65;53.15;95214.25;6244444;23;20034;-77
2021/01/21 08:31:40;;;;;;;0.80;0.60;;;;;;;6.70;54.13;95214.47;6245344;23;20020;-78
2021/01/21 08:34:09;;;;;;;0.93;0.80;;;;;;;6.78;53.90;95227.28;6245276;23;20024;-77
2021/01/21 08:36:37;;;;;;;2.90;0.90;;;;;;;6.85;55.13;95229.91;6245155;23;20099;-78
2021/01/21 08:39:04;;;;;;;2.22;0.38;;;;;;;6.94;53.65;95227.94;6245281;23;20020;-78
2021/01/21 08:41:31;;;;;;;1.85;0.50;;;;;;;7.07;53.31;95229.81;6244998;23;20020;-77
2021/01/21 08:44:00;;;;;;;0.63;0.43;;;;;;;7.15;52.36;95224.44;6245163;23;20460;-78
2021/01/21 08:46:28;;;;;;;3.05;0.88;;;;;;;7.22;54.93;95225.28;6245055;23;20059;-77
2021/01/21 08:49:06;;;;;;;0.50;0.40;;;;;;;7.27;52.80;95222.91;6245113;23;20020;-78
2021/01/21 08:51:37;;;;;;;2.45;0.75;;;;;;;7.33;54.07;95231.69;6244487;23;20022;-78
2021/01/21 08:54:16;;;;;;;5.35;1.02;;;;;;;7.37;52.36;95225.13;6244693;23;20099;-78
2021/01/21 08:56:45;;;;;;;0.60;0.60;;;;;;;7.40;54.22;95222.94;6243515;23;20344;-77
2021/01/21 08:59:28;;;;;;;1.38;0.85;;;;;;;7.42;55.54;95215.75;6244831;23;20031;-77
2021/01/21 09:01:56;;;;;;;0.82;0.50;;;;;;;7.46;54.61;95218.75;6245343;23;20406;-77
2021/01/21 09:04:27;;;;;;;1.85;0.40;;;;;;;7.50;52.81;95217.38;6246526;23;20036;-77
2021/01/21 09:06:55;;;;;;;3.17;1.17;;;;;;;7.56;55.43;95215.78;6246830;23;20091;-77
2021/01/21 09:09:30;;;;;;;0.63;0.47;;;;;;;7.59;53.64;95223.19;6246513;23;20020;-77
2021/01/21 09:11:58;;;;;;;1.20;0.50;;;;;;;7.64;53.84;95213.00;6247004;23;20051;-77
2021/01/21 09:14:26;;;;;;;1.88;0.40;;;;;;;7.69;53.36;95233.97;6246824;23;20023;-79
2021/01/21 09:16:55;;;;;;;0.80;0.35;;;;;;;7.78;51.91;95219.84;6247329;23;20034;-79
2021/01/21 09:19:45;;;;;;;1.48;0.60;;;;;;;7.91;53.00;95210.44;6247018;23;20474;-78
2021/01/21 09:22:13;;;;;;;0.47;0.30;;;;;;;7.98;51.68;95216.44;6247699;23;20406;-79
2021/01/21 09:24:57;;;;;;;2.97;0.43;;;;;;;8.08;51.33;95216.84;6247389;23;20095;-79
2021/01/21 09:27:25;;;;;;;2.05;0.50;;;;;;;8.14;52.16;95213.44;6246530;23;20026;-79
2021/01/21 09:29:55;;;;;;;0.82;0.50;;;;;;;8.21;50.61;95216.84;6243834;23;20051;-78
2021/01/21 09:32:24;;;;;;;0.30;0.28;;;;;;;8.31;50.44;95215.63;6246571;23;20100;-78
2021/01/21 09:35:02;;;;;;;1.77;0.30;;;;;;;8.42;50.27;95221.06;6246860;23;20027;-79
2021/01/21 09:37:30;;;;;;;4.85;0.68;;;;;;;8.50;51.77;95234.84;6246449;23;20020;-79
2021/01/21 09:39:57;;;;;;;0.70;0.45;;;;;;;8.56;50.69;95227.03;6257564;23;20024;-78
2021/01/21 09:42:24;;;;;;;4.57;0.40;;;;;;;8.65;51.08;95238.00;6260701;23;20024;-79
2021/01/21 09:44:51;;;;;;;2.15;0.40;;;;;;;8.73;51.29;95232.59;6263055;23;20452;-79
2021/01/21 09:47:17;;;;;;;1.00;0.28;;;;;;;8.84;50.83;95249.38;6262496;23;20080;-79
2021/01/21 09:49:45;;;;;;;7.72;1.30;;;;;;;8.96;50.45;95231.31;6248246;23;20031;-78
2021/01/21 09:52:13;;;;;;;4.13;0.90;;;;;;;9.11;50.77;95241.50;6247546;23;20026;-78
2021/01/21 09:54:40;;;;;;;0.75;0.52;;;;;;;9.28;50.75;95250.44;6246865;23;20027;-79
2021/01/21 09:57:07;;;;;;;0.52;0.40;;;;;;;9.41;49.35;95239.16;6246465;23;20026;-79
2021/01/21 09:59:34;;;;;;;12.43;1.92;;;;;;;9.59;51.01;95243.69;6245786;23;20483;-79
2021/01/21 10:02:00;;;;;;;0.40;0.40;;;;;;;9.76;49.71;95239.56;6246810;23;20024;-79
2021/01/21 10:04:27;;;;;;;1.05;0.40;;;;;;;9.89;49.40;95239.50;6246083;23;20027;-79
2021/01/21 10:06:55;;;;;;;0.80;0.35;;;;;;;10.04;49.00;95228.78;6246122;23;20022;-79
2021/01/21 10:09:21;;;;;;;3.25;0.30;;;;;;;10.22;49.48;95242.88;6245940;23;20020;-78
2021/01/21 10:11:48;;;;;;;1.70;0.47;;;;;;;10.37;50.08;95238.16;6245223;23;20356;-79
2021/01/21 10:14:14;;;;;;;0.35;0.20;;;;;;;10.51;49.74;95251.88;6246081;23;20020;-78
2021/01/21 10:16:41;;;;;;;0.30;0.30;;;;;;;10.68;49.21;95241.72;6245459;23;20475;-78
2021/01/21 10:19:09;;;;;;;1.15;0.38;;;;;;;10.85;49.36;95249.78;6245231;23;20356;-79
2021/01/21 10:21:37;;;;;;;1.75;0.25;;;;;;;11.03;49.95;95218.47;6245784;23;20024;-79
2021/01/21 10:24:06;;;;;;;5.35;0.60;;;;;;;11.14;50.23;95241.22;6246087;23;20017;-79
2021/01/21 10:26:32;;;;;;;5.07;0.85;;;;;;;11.16;49.58;95235.00;6245403;23;20028;-79
2021/01/21 10:29:00;;;;;;;0.65;0.10;;;;;;;11.16;49.24;95235.00;6246186;23;20016;-79
2021/01/21 10:31:26;;;;;;;0.10;0.10;;;;;;;11.23;48.78;95226.06;6246179;23;20051;-79
2021/01/21 10:33:53;;;;;;;4.45;0.50;;;;;;;11.32;49.46;95226.56;6246207;23;20016;-79
2021/01/21 10:36:19;;;;;;;1.55;0.75;;;;;;;11.47;50.20;95226.16;6246117;23;20027;-79
2021/01/21 10:38:46;;;;;;;3.58;0.55;;;;;;;11.64;48.95;95216.69;6245727;23;20027;-79
2021/01/21 10:41:14;;;;;;;0.20;0.20;;;;;;;11.69;47.89;95218.63;6246470;23;20024;-78
2021/01/21 10:43:40;;;;;;;5.10;0.70;;;;;;;11.70;49.05;95199.34;6245663;23;20482;-79
2021/01/21 10:46:07;;;;;;;1.48;0.20;;;;;;;11.67;48.71;95208.41;6244581;23;20030;-79
2021/01/21 10:48:33;;;;;;;1.00;0.35;;;;;;;11.62;49.16;95217.94;6244718;23;20020;-79
2021/01/21 10:51:00;;;;;;;1.48;0.38;;;;;;;11.57;48.70;95210.78;6244662;23;20406;-79
2021/01/21 10:53:28;;;;;;;0.43;0.20;;;;;;;11.52;48.87;95219.28;6245536;23;20020;-79
2021/01/21 10:55:54;;;;;;;0.93;0.40;;;;;;;11.50;48.09;95228.31;6244802;23;20023;-79
2021/01/21 10:58:21;;;;;;;1.15;0.35;;;;;;;11.53;49.04;95228.69;6245504;23;20024;-79
2021/01/21 11:00:48;;;;;;;0.68;0.20;;;;;;;11.54;47.80;95243.34;6244885;23;20020;-80
2021/01/21 11:03:15;;;;;;;2.58;0.77;;;;;;;11.54;48.47;95248.59;6246151;23;20016;-79
2021/01/21 11:05:43;;;;;;;0.50;0.38;;;;;;;11.52;47.78;95253.22;6245665;23;20384;-80
2021/01/21 11:08:10;;;;;;;2.22;0.63;;;;;;;11.47;47.62;95253.06;6246104;23;20026;-79
2021/01/21 11:10:38;;;;;;;0.73;0.30;;;;;;;11.44;48.18;95240.47;6246022;23;20020;-76
2021/01/21 11:13:06;;;;;;;0.63;0.38;;;;;;;11.46;48.42;95245.47;6245358;23;20016;-76
2021/01/21 11:15:33;;;;;;;0.25;0.20;;;;;;;11.40;46.81;95252.38;6244696;23;20024;-76
2021/01/21 11:18:00;;;;;;;0.75;0.20;;;;;;;11.34;46.69;95243.59;6248884;23;20103;-81
2021/01/21 11:20:34;;;;;;;0.73;0.38;;;;;;;11.29;48.64;95243.44;6253262;23;20469;-79
2021/01/21 11:23:00;;;;;;;1.58;0.52;;;;;;;11.24;48.69;95247.72;6245258;23;20559;-80
2021/01/21 11:25:28;;;;;;;0.65;0.20;;;;;;;11.19;48.38;95244.97;6244925;23;20027;-80
2021/01/21 11:28:02;;;;;;;0.20;0.20;;;;;;;11.11;47.10;95233.81;6245453;23;20055;-79
2021/01/21 11:30:30;;;;;;;0.30;0.30;;;;;;;11.08;48.30;95243.91;6245285;23;20024;-79
2021/01/21 11:32:58;;;;;;;1.52;0.77;;;;;;;11.04;48.68;95221.84;6245758;23;20055;-79
2021/01/21 11:35:25;;;;;;;0.28;0.28;;;;;;;10.99;47.64;95227.72;6245011;23;20028;-79
2021/01/21 11:37:51;;;;;;;1.08;0.60;;;;;;;10.95;48.23;95221.34;6245951;23;20107;-78
2021/01/21 11:40:18;;;;;;;0.90;0.50;;;;;;;10.91;48.83;95234.06;6245309;23;20082;-79
2021/01/21 11:42:44;;;;;;;0.30;0.30;;;;;;;10.89;48.24;95228.25;6245900;23;20031;-79
2021/01/21 11:45:12;;;;;;;0.60;0.40;;;;;;;10.85;47.93;95213.25;6245491;23;20456;-80
2021/01/21 11:47:39;;;;;;;0.52;0.45;;;;;;;10.83;49.35;95220.50;6245381;23;20028;-78
2021/01/21 11:50:12;;;;;;;1.48;0.30;;;;;;;10.82;48.04;95209.28;6245398;23;20059;-79
2021/01/21 11:52:39;;;;;;;0.65;0.40;;;;;;;10.83;49.31;95210.84;6245797;23;20024;-79
2021/01/21 11:55:07;;;;;;;0.30;0.30;;;;;;;10.87;48.00;95201.59;6245739;23;20016;-79
2021/01/21 11:57:34;;;;;;;1.10;0.52;;;;;;;10.92;48.18;95203.53;6246632;23;20020;-79
2021/01/21 12:00:01;;;;;;;2.13;0.40;;;;;;;10.98;48.07;95204.50;6250939;23;20024;-79
2021/01/21 12:02:28;;;;;;;0.50;0.50;;;;;;;11.04;47.77;95201.81;6267816;23;20012;-79
2021/01/21 12:04:55;;;;;;;12.32;1.90;;;;;;;11.07;47.81;95200.56;6264223;23;20012;-80
2021/01/21 12:07:22;;;;;;;2.60;0.40;;;;;;;11.06;48.09;95198.94;6255730;23;20076;-79
2021/01/21 12:09:49;;;;;;;5.13;0.63;;;;;;;11.03;48.13;95200.19;6244953;23;20460;-79
2021/01/21 12:12:15;;;;;;;2.80;1.27;;;;;;;11.03;49.90;95183.75;6246844;23;20718;-79
2021/01/21 12:14:42;;;;;;;6.93;0.90;;;;;;;11.07;47.84;95197.94;6245887;23;20356;-80
2021/01/21 12:17:08;;;;;;;5.10;0.70;;;;;;;11.22;47.80;95190.53;6246239;23;20024;-80
2021/01/21 12:19:35;;;;;;;0.32;0.30;;;;;;;11.41;47.36;95177.44;6245732;23;20099;-79
2021/01/21 12:22:01;;;;;;;1.05;0.52;;;;;;;11.53;46.88;95179.06;6245517;23;20016;-79
2021/01/21 12:24:29;;;;;;;1.38;0.88;;;;;;;11.69;48.23;95174.22;6244653;23;20027;-79
2021/01/21 12:26:56;;;;;;;1.75;0.30;;;;;;;11.77;46.67;95186.97;6245400;23;20020;-79
2021/01/21 12:29:22;;;;;;;0.40;0.40;;;;;;;11.76;47.18;95167.09;6244708;23;20024;-80
2021/01/21 12:31:49;;;;;;;12.27;0.75;;;;;;;11.74;47.13;95174.34;6244644;23;20026;-79
2021/01/21 12:34:16;;;;;;;0.25;0.25;;;;;;;11.71;46.93;95180.03;6244345;23;20020;-79
2021/01/21 12:36:43;;;;;;;0.35;0.35;;;;;;;11.65;46.98;95175.69;6245419;23;20020;-81
2021/01/21 12:39:09;;;;;;;5.03;0.57;;;;;;;11.59;47.50;95176.59;6247682;23;20360;-82
2021/01/21 12:41:37;;;;;;;0.70;0.40;;;;;;;11.52;47.02;95174.88;6249612;23;20083;-80
2021/01/21 12:44:04;;;;;;;1.33;0.70;;;;;;;11.47;48.02;95177.34;6247899;23;20046;-80
2021/01/21 12:46:31;;;;;;;2.00;0.60;;;;;;;11.47;48.26;95164.28;6246936;23;20095;-78
2021/01/21 12:48:58;;;;;;;3.42;0.70;;;;;;;11.54;48.05;95159.78;6246509;23;20051;-80
2021/01/21 12:51:25;;;;;;;0.40;0.30;;;;;;;11.63;47.75;95159.44;6246663;23;20654;-81
2021/01/21 12:53:51;;;;;;;1.27;0.43;;;;;;;11.69;48.60;95155.94;6246833;23;20475;-80
2021/01/21 12:56:18;;;;;;;2.40;1.00;;;;;;;11.76;50.25;95146.19;6246353;23;20023;-79
2021/01/21 12:58:46;;;;;;;2.20;0.85;;;;;;;11.84;50.06;95164.16;6247582;23;20028;-80
2021/01/21 13:01:13;;;;;;;1.85;0.63;;;;;;;11.91;48.25;95143.97;6246111;23;20016;-81
2021/01/21 13:03:41;;;;;;;1.52;0.77;;;;;;;11.95;49.26;95144.31;6246762;23;20024;-80
2021/01/21 13:06:08;;;;;;;1.98;0.50;;;;;;;11.93;48.97;95141.94;6246609;23;20102;-79
2021/01/21 13:08:35;;;;;;;0.60;0.40;;;;;;;11.86;47.79;95151.66;6247204;23;20024;-80
2021/01/21 13:11:02;;;;;;;1.33;0.43;;;;;;;11.78;48.49;95152.00;6248657;23;20023;-80
2021/01/21 13:13:32;;;;;;;1.35;0.77;;;;;;;11.71;49.57;95141.66;6247907;23;20017;-80
2021/01/21 13:16:00;;;;;;;1.95;0.60;;;;;;;11.67;50.85;95148.34;6247546;23;20028;-81